Time;durP1;ratioP1;P1;durP2;ratioP2;P2;SDS_P1;SDS_P2;PMS_P1;PMS_P2;Temp;Humidity;BMP_temperature;BMP_pressure;BME280_temperature;BME280_humidity;BME280_pressure;Samples;Min_cycle;Max_cycle;Signal;HPM_P1;HPM_P2
2022/11/04 00:01:52;;;;;;;4.18;2.20;;;17.40;96.70;;;;;;4954909;28;20039;-73
2022/11/04 00:04:24;;;;;;;4.53;1.67;;;17.50;96.70;;;;;;4939094;28;20653;-73
2022/11/04 00:06:53;;;;;;;5.68;2.55;;;17.50;96.70;;;;;;4960962;28;20497;-73
2022/11/04 00:09:22;;;;;;;6.10;2.65;;;17.60;96.70;;;;;;4952758;28;20043;-73
2022/11/04 00:14:38;;;;;;;4.30;2.15;;;17.60;96.70;;;;;;4936029;29;20051;-73
2022/11/04 00:17:22;;;;;;;4.15;2.10;;;17.70;96.70;;;;;;4951680;28;20043;-73
2022/11/04 00:33:56;;;;;;;3.63;2.10;;;17.70;96.70;;;;;;4961276;28;20043;-72
2022/11/04 00:36:26;;;;;;;6.28;2.47;;;17.70;96.70;;;;;;4953297;28;20391;-73
2022/11/04 00:38:55;;;;;;;4.57;2.40;;;17.60;96.70;;;;;;4929775;28;20137;-73
2022/11/04 00:41:26;;;;;;;4.80;2.13;;;17.50;96.70;;;;;;4912751;28;20051;-73
2022/11/04 00:43:56;;;;;;;5.85;2.55;;;17.60;96.70;;;;;;4913122;29;20044;-73
2022/11/04 00:46:26;;;;;;;3.45;1.90;;;17.60;96.70;;;;;;4945957;28;20497;-73
2022/11/04 00:48:55;;;;;;;7.75;2.15;;;17.70;96.70;;;;;;4942558;28;20058;-73
2022/11/04 00:51:25;;;;;;;6.43;2.55;;;17.70;96.70;;;;;;4911647;28;21181;-73
2022/11/04 00:53:54;;;;;;;4.32;2.25;;;17.70;96.70;;;;;;4921265;28;20608;-73
2022/11/04 00:56:23;;;;;;;4.00;1.85;;;17.70;96.70;;;;;;4928540;29;20490;-73
2022/11/04 00:58:51;;;;;;;4.43;2.17;;;17.70;96.70;;;;;;4949869;28;20042;-73
2022/11/04 01:01:20;;;;;;;3.28;1.80;;;17.70;96.70;;;;;;4918578;29;20047;-73
2022/11/04 01:03:50;;;;;;;3.35;1.83;;;17.70;96.70;;;;;;4936654;28;20047;-73
2022/11/04 01:06:20;;;;;;;4.00;1.95;;;17.70;96.70;;;;;;4929768;28;20058;-73
2022/11/04 01:08:54;;;;;;;3.90;1.80;;;17.70;96.70;;;;;;4951276;28;20035;-73
2022/11/04 01:11:23;;;;;;;3.97;1.67;;;17.70;96.70;;;;;;4957660;28;20043;-73
2022/11/04 01:13:51;;;;;;;5.07;2.40;;;17.80;96.70;;;;;;4945014;28;20035;-73
2022/11/04 01:16:20;;;;;;;3.38;2.10;;;17.70;96.70;;;;;;4928180;28;20055;-73
2022/11/04 01:18:48;;;;;;;6.63;2.45;;;17.60;96.70;;;;;;4947503;28;20042;-73
2022/11/04 01:21:17;;;;;;;3.30;1.70;;;17.50;96.70;;;;;;4935849;28;20164;-73
2022/11/04 01:23:45;;;;;;;7.15;1.77;;;17.60;96.70;;;;;;4953154;28;20046;-73
2022/11/04 01:26:17;;;;;;;5.05;2.40;;;17.70;96.70;;;;;;4955586;28;20138;-73
2022/11/04 01:28:46;;;;;;;3.72;1.60;;;17.70;96.70;;;;;;4955866;28;20047;-72
2022/11/04 01:31:17;;;;;;;2.47;1.70;;;17.70;96.70;;;;;;4963617;28;20035;-73
2022/11/04 01:33:45;;;;;;;6.03;2.10;;;17.80;96.70;;;;;;4937069;28;20052;-73
2022/11/04 01:36:14;;;;;;;5.43;2.60;;;17.80;96.70;;;;;;4960305;28;20043;-73
2022/11/04 01:38:43;;;;;;;3.40;1.77;;;17.70;96.70;;;;;;4955106;28;20457;-73
2022/11/04 01:41:19;;;;;;;3.95;2.08;;;17.70;96.70;;;;;;4924340;28;20063;-73
2022/11/04 01:43:49;;;;;;;;;;;17.70;96.70;;;;;;4946183;28;20074;-75
2022/11/04 01:46:25;;;;;;;7.20;2.33;;;17.70;96.70;;;;;;4930280;28;19926;-73
2022/11/04 01:48:58;;;;;;;2.33;1.48;;;17.70;96.70;;;;;;4955063;28;20608;-73
2022/11/04 01:51:30;;;;;;;4.63;1.90;;;17.70;96.70;;;;;;4959994;28;20054;-73
2022/11/04 01:53:59;;;;;;;13.65;2.15;;;17.70;96.70;;;;;;4914024;28;20055;-73
2022/11/04 01:56:30;;;;;;;2.53;1.80;;;17.70;96.70;;;;;;4941947;28;20043;-73
2022/11/04 01:59:06;;;;;;;5.00;1.75;;;17.70;96.70;;;;;;4963181;28;20051;-73
2022/11/04 02:01:34;;;;;;;3.70;1.88;;;17.70;96.70;;;;;;4945312;28;20150;-73
2022/11/04 02:06:54;;;;;;;3.47;1.95;;;17.60;96.70;;;;;;4951161;28;20821;-73
2022/11/04 02:09:24;;;;;;;3.83;1.90;;;17.60;96.70;;;;;;4958121;28;20047;-73
2022/11/04 02:14:41;;;;;;;4.45;2.00;;;17.60;96.70;;;;;;4948187;28;20551;-73
2022/11/04 02:17:27;;;;;;;2.92;2.15;;;17.70;96.70;;;;;;4939112;29;20133;-73
2022/11/04 02:20:08;;;;;;;3.27;1.80;;;17.70;96.70;;;;;;4956642;28;20051;-72
2022/11/04 02:23:14;;;;;;;2.78;1.80;;;17.70;96.70;;;;;;4958519;28;20405;-73
2022/11/04 02:26:16;;;;;;;3.70;1.77;;;17.70;96.70;;;;;;4924498;28;20051;-73
2022/11/04 02:29:13;;;;;;;2.97;2.10;;;17.70;96.70;;;;;;4961726;28;20053;-73
2022/11/04 02:31:49;;;;;;;3.53;2.30;;;17.70;96.70;;;;;;4915053;28;20567;-73
2022/11/04 02:34:24;;;;;;;3.22;2.30;;;17.70;96.70;;;;;;4966752;28;20043;-73
2022/11/04 02:37:05;;;;;;;3.53;2.00;;;17.60;96.70;;;;;;4922403;28;20051;-73
2022/11/04 02:39:43;;;;;;;2.85;1.95;;;17.60;96.70;;;;;;4953925;28;20049;-73
2022/11/04 02:42:16;;;;;;;9.95;3.25;;;17.50;96.70;;;;;;4956198;28;20138;-73
2022/11/04 02:44:50;;;;;;;4.30;2.30;;;17.50;96.70;;;;;;4947386;28;20058;-73
2022/11/04 02:47:25;;;;;;;3.83;2.13;;;17.50;96.70;;;;;;4930554;28;20618;-73
2022/11/04 02:49:57;;;;;;;5.72;2.28;;;17.50;96.70;;;;;;4930229;28;20062;-73
2022/11/04 02:52:32;;;;;;;5.38;2.65;;;17.50;96.70;;;;;;4948649;28;20074;-73
2022/11/04 02:55:04;;;;;;;3.85;1.90;;;17.50;96.70;;;;;;4914722;28;20233;-73
2022/11/04 02:57:36;;;;;;;5.22;2.17;;;17.50;96.70;;;;;;4955248;28;20047;-73
2022/11/04 03:00:09;;;;;;;6.90;2.17;;;17.50;96.70;;;;;;4942166;28;20043;-73
2022/11/04 03:02:42;;;;;;;4.97;2.20;;;17.50;96.70;;;;;;4948599;28;20054;-73
2022/11/04 03:05:15;;;;;;;3.90;2.20;;;17.50;96.70;;;;;;4953272;28;20062;-73
2022/11/04 03:07:47;;;;;;;4.95;1.80;;;17.50;96.70;;;;;;4921889;28;20146;-73
2022/11/04 03:10:18;;;;;;;3.15;1.85;;;17.50;96.70;;;;;;4952900;28;20410;-73
2022/11/04 03:12:50;;;;;;;5.43;2.08;;;17.50;96.70;;;;;;4948231;28;20039;-72
2022/11/04 03:15:26;;;;;;;4.60;2.22;;;17.50;96.70;;;;;;4946950;28;20043;-74
2022/11/04 03:17:59;;;;;;;3.35;2.05;;;17.50;96.70;;;;;;4923782;28;20039;-73
2022/11/04 03:20:30;;;;;;;6.55;2.20;;;17.50;96.70;;;;;;4936680;28;20054;-73
2022/11/04 03:22:59;;;;;;;5.38;1.90;;;17.40;96.70;;;;;;4926316;28;20097;-73
2022/11/04 03:25:35;;;;;;;3.60;2.20;;;17.40;96.70;;;;;;4945802;28;20050;-73
2022/11/04 03:28:07;;;;;;;4.55;1.85;;;17.40;96.70;;;;;;4940314;28;20047;-73
2022/11/04 03:30:42;;;;;;;5.93;2.58;;;17.40;96.70;;;;;;4948157;28;20130;-74
2022/11/04 03:33:18;;;;;;;4.05;2.35;;;17.40;96.70;;;;;;4948992;28;20507;-73
2022/11/04 03:35:46;;;;;;;6.35;2.42;;;17.40;96.70;;;;;;4957393;28;20043;-73
2022/11/04 03:38:14;;;;;;;6.53;2.38;;;17.40;96.70;;;;;;4943071;28;20498;-73
2022/11/04 03:40:42;;;;;;;3.42;2.20;;;17.40;96.70;;;;;;4941610;28;20051;-73
2022/11/04 03:43:13;;;;;;;5.97;2.38;;;17.40;96.70;;;;;;4956158;28;20165;-73
2022/11/04 03:45:43;;;;;;;3.90;2.60;;;17.40;96.70;;;;;;4922097;28;20055;-73
2022/11/04 03:48:12;;;;;;;6.95;2.40;;;17.40;96.70;;;;;;4954646;28;20054;-72
2022/11/04 03:50:41;;;;;;;3.80;2.10;;;17.40;96.70;;;;;;4947066;28;20046;-73
2022/11/04 03:53:11;;;;;;;4.65;2.33;;;17.40;96.70;;;;;;4954860;28;20052;-73
2022/11/04 03:56:01;;;;;;;4.25;1.92;;;17.50;96.70;;;;;;4966982;28;20043;-73
2022/11/04 03:58:38;;;;;;;4.00;2.13;;;17.40;96.70;;;;;;4947493;28;20561;-73
2022/11/04 04:01:17;;;;;;;5.78;2.08;;;17.40;96.70;;;;;;4943583;28;20050;-73
2022/11/04 04:03:52;;;;;;;5.85;2.00;;;17.40;96.70;;;;;;4949288;28;20100;-73
2022/11/04 04:06:25;;;;;;;3.85;2.10;;;17.40;96.70;;;;;;4946810;28;20051;-73
2022/11/04 04:08:57;;;;;;;2.60;1.60;;;17.50;96.70;;;;;;4934320;28;20505;-73
2022/11/04 04:11:36;;;;;;;4.13;2.25;;;17.50;96.70;;;;;;4929496;28;20110;-73
2022/11/04 04:14:37;;;;;;;6.30;2.20;;;17.40;96.70;;;;;;4966651;28;20047;-73
2022/11/04 04:17:05;;;;;;;4.43;1.95;;;17.50;96.70;;;;;;4945316;28;20050;-73
2022/11/04 04:19:34;;;;;;;5.97;1.90;;;17.50;96.70;;;;;;4947478;28;20080;-72
2022/11/04 04:22:05;;;;;;;5.20;1.98;;;17.50;96.70;;;;;;4925257;29;20533;-73
2022/11/04 04:27:29;;;;;;;3.95;1.90;;;17.40;96.70;;;;;;4928167;28;20055;-73
2022/11/04 04:29:59;;;;;;;3.97;2.05;;;17.40;96.70;;;;;;4946397;28;20761;-73
2022/11/04 04:32:33;;;;;;;6.60;2.20;;;17.40;96.70;;;;;;4928450;28;20436;-73
2022/11/04 04:37:48;;;;;;;3.83;1.92;;;17.40;96.70;;;;;;4950409;28;20047;-73
2022/11/04 04:45:55;;;;;;;6.43;2.35;;;17.40;96.70;;;;;;4946510;28;20039;-73
2022/11/04 04:48:25;;;;;;;5.97;2.20;;;17.40;96.70;;;;;;4950072;28;20051;-73
2022/11/04 04:50:55;;;;;;;3.65;2.05;;;17.40;96.70;;;;;;4937376;28;20043;-73
2022/11/04 04:53:23;;;;;;;5.43;2.22;;;17.40;96.70;;;;;;4934293;28;21157;-72
2022/11/04 04:55:51;;;;;;;5.47;3.13;;;17.50;96.70;;;;;;4948279;28;20746;-73
2022/11/04 04:58:19;;;;;;;4.25;2.40;;;17.40;96.70;;;;;;4937800;28;20043;-73
2022/11/04 05:00:46;;;;;;;4.85;2.80;;;17.40;96.70;;;;;;4952511;28;20126;-73
2022/11/04 05:03:14;;;;;;;4.38;2.13;;;17.40;96.70;;;;;;4955457;28;20437;-73
2022/11/04 05:05:43;;;;;;;6.72;3.20;;;17.40;96.70;;;;;;4949848;28;20162;-72
2022/11/04 05:08:11;;;;;;;7.03;2.60;;;17.40;96.70;;;;;;4958131;28;20580;-73
2022/11/04 05:10:39;;;;;;;6.90;2.65;;;17.40;96.70;;;;;;4944661;28;20043;-73
2022/11/04 05:13:27;;;;;;;6.13;2.90;;;17.40;96.70;;;;;;4912862;29;20079;-72
2022/11/04 05:15:55;;;;;;;5.07;3.05;;;17.40;96.70;;;;;;4955358;28;20106;-72
2022/11/04 05:18:23;;;;;;;5.57;3.20;;;17.40;96.70;;;;;;4942399;28;20055;-73
2022/11/04 05:20:52;;;;;;;8.88;3.13;;;17.30;96.70;;;;;;4944129;28;20050;-72
2022/11/04 05:23:20;;;;;;;5.82;2.80;;;17.20;96.70;;;;;;4932430;28;20516;-73
2022/11/04 05:25:49;;;;;;;4.63;2.55;;;17.20;96.70;;;;;;4925368;29;20332;-72
2022/11/04 05:28:17;;;;;;;7.03;3.17;;;17.30;96.70;;;;;;4942995;28;20043;-72
2022/11/04 05:30:45;;;;;;;6.25;3.00;;;17.30;96.70;;;;;;4952736;28;20039;-73
2022/11/04 05:33:12;;;;;;;6.03;2.83;;;17.30;96.70;;;;;;4942902;28;20051;-72
2022/11/04 05:35:40;;;;;;;6.32;2.60;;;17.30;96.70;;;;;;4957864;28;20400;-73
2022/11/04 05:38:09;;;;;;;6.30;3.22;;;17.30;96.70;;;;;;4940275;29;20040;-72
2022/11/04 05:40:37;;;;;;;5.38;2.60;;;17.30;96.70;;;;;;4924373;28;20055;-73
2022/11/04 05:43:04;;;;;;;6.82;3.00;;;17.20;96.70;;;;;;4953997;28;20071;-73
2022/11/04 05:45:32;;;;;;;6.15;2.80;;;17.20;96.70;;;;;;4956987;28;20055;-73
2022/11/04 05:48:01;;;;;;;5.72;2.75;;;17.20;96.70;;;;;;4942188;28;20035;-73
2022/11/04 05:50:30;;;;;;;7.70;3.03;;;17.30;96.70;;;;;;4932320;28;20043;-72
2022/11/04 05:52:59;;;;;;;10.10;2.72;;;17.50;96.70;;;;;;4931032;29;20039;-72
2022/11/04 05:55:28;;;;;;;10.02;2.85;;;17.60;96.70;;;;;;4949214;28;20098;-72
2022/11/04 05:57:56;;;;;;;9.48;2.95;;;17.60;96.70;;;;;;4930790;28;20093;-73
2022/11/04 06:00:25;;;;;;;7.25;2.15;;;17.70;96.70;;;;;;4932455;28;20054;-72
2022/11/04 06:02:56;;;;;;;5.97;2.60;;;17.80;96.70;;;;;;4947979;28;20039;-73
2022/11/04 06:05:24;;;;;;;7.18;2.03;;;17.90;96.70;;;;;;4941532;28;20573;-74
2022/11/04 06:07:52;;;;;;;5.97;2.05;;;18.00;96.70;;;;;;4956446;28;20409;-73
2022/11/04 06:10:20;;;;;;;8.48;2.05;;;18.00;96.70;;;;;;4946030;28;20043;-73
2022/11/04 06:12:49;;;;;;;5.25;1.50;;;18.00;96.70;;;;;;4958225;28;20113;-73
2022/11/04 06:15:17;;;;;;;6.53;1.48;;;18.00;96.70;;;;;;4965907;28;20101;-73
2022/11/04 06:17:45;;;;;;;4.68;1.50;;;18.00;96.70;;;;;;4971744;28;20058;-74
2022/11/04 06:20:13;;;;;;;5.60;1.00;;;17.90;96.70;;;;;;4950832;28;20054;-73
2022/11/04 06:22:40;;;;;;;8.38;1.65;;;17.80;96.70;;;;;;4960358;28;20087;-73
2022/11/04 06:25:08;;;;;;;7.30;1.52;;;17.70;96.70;;;;;;4943791;28;20046;-73
2022/11/04 06:27:41;;;;;;;7.80;1.63;;;17.60;96.70;;;;;;4956226;28;20043;-73
2022/11/04 06:30:11;;;;;;;10.35;1.70;;;17.60;96.70;;;;;;4953756;28;20039;-73
2022/11/04 06:32:39;;;;;;;9.07;1.50;;;17.50;96.70;;;;;;4948171;28;20043;-73
2022/11/04 06:35:20;;;;;;;9.57;1.50;;;17.50;96.70;;;;;;4963695;28;20044;-73
2022/11/04 06:37:48;;;;;;;5.93;1.08;;;17.40;96.70;;;;;;4952937;28;20047;-73
2022/11/04 06:40:16;;;;;;;9.25;1.10;;;17.50;96.70;;;;;;4931285;29;20039;-73
2022/11/04 06:42:44;;;;;;;10.13;1.77;;;17.50;96.70;;;;;;4948710;28;20059;-73
2022/11/04 06:45:13;;;;;;;8.48;1.38;;;17.50;96.70;;;;;;4956274;28;20879;-73
2022/11/04 06:47:41;;;;;;;7.03;2.15;;;17.40;96.70;;;;;;4961264;28;20569;-73
2022/11/04 06:50:09;;;;;;;5.90;1.30;;;17.40;96.70;;;;;;4940632;28;20067;-74
2022/11/04 06:52:37;;;;;;;7.15;1.05;;;17.50;96.70;;;;;;4940400;28;20101;-73
2022/11/04 06:55:09;;;;;;;6.95;1.27;;;17.50;96.70;;;;;;4935150;29;20148;-73
2022/11/04 06:57:37;;;;;;;9.25;1.13;;;17.50;96.70;;;;;;4948546;28;21118;-72
2022/11/04 07:00:06;;;;;;;6.20;1.10;;;17.50;96.70;;;;;;4931883;28;20114;-73
2022/11/04 07:02:37;;;;;;;8.57;1.33;;;17.60;96.70;;;;;;4951006;28;20055;-73
2022/11/04 07:05:06;;;;;;;5.45;1.08;;;17.70;96.70;;;;;;4933071;28;20065;-72
2022/11/04 07:07:34;;;;;;;6.10;1.50;;;17.90;96.70;;;;;;4946626;28;20078;-73
2022/11/04 07:10:02;;;;;;;5.45;1.02;;;18.00;96.70;;;;;;4930274;29;20616;-73
2022/11/04 07:12:30;;;;;;;5.65;1.00;;;18.00;96.70;;;;;;4947914;28;20434;-73
2022/11/04 07:14:58;;;;;;;7.10;1.10;;;18.00;96.70;;;;;;4931865;28;20146;-73
2022/11/04 07:17:26;;;;;;;6.80;1.30;;;18.10;96.70;;;;;;4963208;28;20146;-72
2022/11/04 07:19:56;;;;;;;8.60;1.40;;;18.10;96.70;;;;;;4955229;28;20051;-72
2022/11/04 07:22:23;;;;;;;4.72;1.45;;;18.10;96.70;;;;;;4937931;28;20062;-73
2022/11/04 07:24:51;;;;;;;7.75;1.38;;;18.00;96.70;;;;;;4932069;29;20637;-73
2022/11/04 07:27:19;;;;;;;10.30;1.77;;;18.00;96.70;;;;;;4930165;28;20051;-72
2022/11/04 07:29:47;;;;;;;6.80;1.70;;;18.00;96.70;;;;;;4941141;28;20051;-73
2022/11/04 07:32:15;;;;;;;6.40;2.03;;;18.00;96.70;;;;;;4930221;28;20154;-73
2022/11/04 07:34:43;;;;;;;8.23;1.70;;;17.90;96.70;;;;;;4930132;29;20051;-73
2022/11/04 07:37:12;;;;;;;4.90;1.45;;;18.00;96.70;;;;;;4952283;28;20603;-73
2022/11/04 07:39:40;;;;;;;7.40;1.48;;;17.90;96.70;;;;;;4931035;29;20053;-73
2022/11/04 07:42:08;;;;;;;7.45;1.65;;;17.90;96.70;;;;;;4958224;28;20067;-73
2022/11/04 07:44:36;;;;;;;5.18;1.17;;;18.00;96.70;;;;;;4935349;28;20043;-72
2022/11/04 07:47:03;;;;;;;11.13;2.55;;;18.10;96.70;;;;;;4941786;28;20047;-72
2022/11/04 07:49:32;;;;;;;5.90;1.30;;;18.10;96.70;;;;;;4953532;28;20420;-73
2022/11/04 07:52:00;;;;;;;5.20;1.10;;;18.10;96.70;;;;;;4936670;28;20078;-73
2022/11/04 07:54:29;;;;;;;5.25;1.05;;;18.10;96.70;;;;;;4934135;28;20042;-73
2022/11/04 07:56:57;;;;;;;6.95;1.48;;;18.10;96.70;;;;;;4930343;28;20565;-71
2022/11/04 07:59:25;;;;;;;5.47;1.20;;;18.10;96.70;;;;;;4945908;28;20051;-73
2022/11/04 08:01:53;;;;;;;4.32;1.08;;;18.00;96.70;;;;;;4946592;28;20054;-73
2022/11/04 08:04:21;;;;;;;5.43;0.90;;;18.00;96.70;;;;;;4946950;28;20039;-73
2022/11/04 08:06:49;;;;;;;9.55;1.63;;;18.00;96.70;;;;;;4930462;28;20903;-73
2022/11/04 08:09:17;;;;;;;6.30;1.17;;;18.00;96.70;;;;;;4910950;29;20101;-72
2022/11/04 08:11:51;;;;;;;7.50;1.33;;;18.00;96.70;;;;;;4945392;28;20043;-72
2022/11/04 08:14:19;;;;;;;8.02;1.30;;;18.00;96.70;;;;;;4942699;28;20054;-73
2022/11/04 08:16:50;;;;;;;4.80;1.15;;;18.00;96.70;;;;;;4944984;28;20098;-73
2022/11/04 08:19:18;;;;;;;3.50;0.90;;;18.10;96.70;;;;;;4929626;29;20458;-73
2022/11/04 08:21:46;;;;;;;8.57;1.30;;;18.10;96.70;;;;;;4928884;29;20041;-72
2022/11/04 08:24:14;;;;;;;6.47;1.00;;;18.20;96.70;;;;;;4955376;28;20082;-73
2022/11/04 08:26:42;;;;;;;6.90;1.40;;;18.20;96.70;;;;;;4958930;28;20039;-73
2022/11/04 08:29:12;;;;;;;4.20;1.30;;;18.30;96.70;;;;;;4914051;28;20811;-74
2022/11/04 08:31:40;;;;;;;7.03;1.35;;;18.50;96.70;;;;;;4932305;28;20046;-73
2022/11/04 08:34:08;;;;;;;6.80;1.50;;;18.50;96.70;;;;;;4932629;29;20051;-72
2022/11/04 08:36:39;;;;;;;6.82;1.20;;;18.50;96.70;;;;;;4928129;28;20446;-73
2022/11/04 08:39:09;;;;;;;16.23;1.92;;;18.60;96.70;;;;;;4938542;28;20101;-73
2022/11/04 08:41:40;;;;;;;9.38;1.65;;;18.60;96.70;;;;;;4939225;28;20185;-71
2022/11/04 08:44:09;;;;;;;9.65;1.60;;;18.70;96.70;;;;;;4963860;28;20043;-71
2022/11/04 08:46:41;;;;;;;9.00;1.65;;;18.70;96.70;;;;;;4935518;29;20126;-72
2022/11/04 08:49:10;;;;;;;20.85;2.80;;;18.70;96.70;;;;;;4956693;28;20047;-72
2022/11/04 08:51:48;;;;;;;11.45;1.98;;;18.70;96.70;;;;;;4943876;28;20133;-73
2022/11/04 08:54:16;;;;;;;7.65;1.90;;;18.70;96.70;;;;;;4929614;29;20114;-74
2022/11/04 08:56:44;;;;;;;6.13;1.38;;;18.70;96.70;;;;;;4928291;29;20410;-72
2022/11/04 08:59:13;;;;;;;6.18;1.80;;;18.90;96.70;;;;;;4943310;28;20434;-72
2022/11/04 09:01:43;;;;;;;15.18;2.47;;;19.10;96.70;;;;;;4927955;28;20051;-73
2022/11/04 09:04:12;;;;;;;6.68;1.65;;;19.20;96.70;;;;;;4928973;28;20805;-73
2022/11/04 09:06:42;;;;;;;6.28;1.33;;;19.20;96.70;;;;;;4927817;28;20051;-73
2022/11/04 09:09:13;;;;;;;10.18;1.45;;;19.40;96.70;;;;;;4928126;29;20409;-72
2022/11/04 09:11:42;;;;;;;8.48;2.00;;;19.40;96.70;;;;;;4949447;28;20557;-72
2022/11/04 09:14:11;;;;;;;9.10;2.05;;;19.50;96.70;;;;;;4933125;28;20043;-73
2022/11/04 09:16:40;;;;;;;8.05;1.70;;;19.50;96.70;;;;;;4945834;28;20047;-73
2022/11/04 09:19:09;;;;;;;9.15;1.52;;;19.50;96.70;;;;;;4954250;28;20142;-72
2022/11/04 09:21:37;;;;;;;11.35;2.00;;;19.50;96.70;;;;;;4951960;28;20046;-73
2022/11/04 09:24:06;;;;;;;7.03;1.40;;;19.50;96.70;;;;;;4921851;29;20527;-72
2022/11/04 09:26:34;;;;;;;9.93;1.45;;;19.60;96.70;;;;;;4914113;29;20692;-73
2022/11/04 09:29:02;;;;;;;9.95;1.80;;;19.60;96.70;;;;;;4929196;28;20059;-72
2022/11/04 09:31:30;;;;;;;10.95;1.50;;;19.70;96.70;;;;;;4928275;28;20051;-73
2022/11/04 09:33:58;;;;;;;7.25;1.50;;;19.70;96.70;;;;;;4944578;28;20442;-73
2022/11/04 09:36:28;;;;;;;16.70;2.60;;;19.80;96.70;;;;;;4928009;29;20043;-73
2022/11/04 09:38:56;;;;;;;5.57;1.40;;;19.80;96.70;;;;;;4938841;28;20074;-73
2022/11/04 09:42:00;;;;;;;8.50;1.60;;;19.90;96.70;;;;;;4927059;28;20537;-72
2022/11/04 09:44:39;;;;;;;6.45;1.45;;;20.00;96.70;;;;;;4881284;28;20210;-74
2022/11/04 09:47:29;;;;;;;6.50;1.88;;;20.00;96.70;;;;;;4941376;28;20047;-73
2022/11/04 09:49:58;;;;;;;6.47;1.80;;;20.20;96.70;;;;;;4930192;28;20052;-73
2022/11/04 09:52:33;;;;;;;9.15;1.73;;;20.10;96.70;;;;;;4928993;28;20043;-74
2022/11/04 09:55:06;;;;;;;9.52;1.50;;;20.10;96.70;;;;;;4950159;28;20110;-73
2022/11/04 09:57:34;;;;;;;6.45;1.52;;;20.00;96.70;;;;;;4931252;28;21235;-73
2022/11/04 10:00:04;;;;;;;7.00;1.40;;;20.10;96.70;;;;;;4945013;28;20137;-73
2022/11/04 10:02:50;;;;;;;3.20;0.90;;;20.00;96.70;;;;;;4944529;28;20051;-74
2022/11/04 10:05:43;;;;;;;7.97;1.70;;;20.00;96.70;;;;;;4952645;28;20043;-73
2022/11/04 10:08:41;;;;;;;9.70;1.75;;;20.00;96.70;;;;;;4946879;28;20048;-73
2022/11/04 10:11:16;;;;;;;4.72;1.27;;;19.90;96.70;;;;;;4927576;28;20071;-73
2022/11/04 10:14:00;;;;;;;6.65;1.38;;;19.80;96.70;;;;;;4949470;28;20035;-72
2022/11/04 10:16:42;;;;;;;7.25;1.42;;;19.80;96.70;;;;;;4944341;28;20039;-73
2022/11/04 10:19:40;;;;;;;13.25;1.83;;;19.70;96.70;;;;;;4948549;28;20058;-74
2022/11/04 10:22:17;;;;;;;8.13;1.77;;;19.50;96.70;;;;;;4941524;28;20138;-73
2022/11/04 10:24:55;;;;;;;10.98;1.73;;;19.30;96.70;;;;;;4946332;28;20047;-73
2022/11/04 10:27:26;;;;;;;8.45;1.50;;;19.30;96.70;;;;;;4947627;28;20109;-73
2022/11/04 10:29:58;;;;;;;10.82;2.53;;;19.50;96.70;;;;;;4949166;28;20053;-73
2022/11/04 10:32:35;;;;;;;10.68;2.00;;;19.70;96.70;;;;;;4930576;28;20106;-74
2022/11/04 10:35:17;;;;;;;7.57;1.80;;;19.70;96.70;;;;;;4930957;28;20122;-72
2022/11/04 10:37:47;;;;;;;8.43;1.67;;;19.90;96.70;;;;;;4932158;29;20043;-73
2022/11/04 10:40:27;;;;;;;7.32;1.58;;;20.00;96.70;;;;;;4916168;29;20063;-74
2022/11/04 10:42:59;;;;;;;11.35;1.75;;;20.20;96.70;;;;;;4915075;28;20073;-73
2022/11/04 10:45:37;;;;;;;6.15;1.10;;;20.30;96.70;;;;;;4930107;29;20509;-72
2022/11/04 10:48:16;;;;;;;9.70;1.30;;;20.30;96.70;;;;;;4948281;28;20562;-72
2022/11/04 10:50:50;;;;;;;4.65;1.50;;;20.40;96.70;;;;;;4944587;28;20130;-72
2022/11/04 10:53:21;;;;;;;5.28;1.10;;;20.50;96.70;;;;;;4937081;28;20084;-72
2022/11/04 10:55:58;;;;;;;3.88;0.90;;;20.60;96.70;;;;;;4943321;29;20051;-73
2022/11/04 10:58:35;;;;;;;5.20;1.17;;;20.70;96.70;;;;;;4939785;28;20573;-72
2022/11/04 11:01:24;;;;;;;9.32;1.27;;;20.70;96.70;;;;;;4910291;28;20225;-74
2022/11/04 11:03:52;;;;;;;6.68;1.38;;;20.80;96.70;;;;;;4948834;28;20042;-72
2022/11/04 11:06:24;;;;;;;5.53;1.30;;;20.70;96.70;;;;;;4949312;28;20047;-72
2022/11/04 11:08:53;;;;;;;6.15;1.45;;;20.80;96.70;;;;;;4963422;28;20055;-72
2022/11/04 11:11:39;;;;;;;4.40;1.30;;;20.80;96.70;;;;;;4932640;28;20055;-72
2022/11/04 11:14:32;;;;;;;7.65;1.42;;;20.70;96.70;;;;;;4953225;28;20082;-72
2022/11/04 11:17:22;;;;;;;4.70;1.30;;;20.50;96.70;;;;;;4952671;28;20582;-73
2022/11/04 11:19:56;;;;;;;7.20;1.55;;;20.20;96.70;;;;;;4949723;28;20150;-73
2022/11/04 11:22:35;;;;;;;6.47;1.30;;;20.10;96.70;;;;;;4946737;28;20051;-72
2022/11/04 11:25:20;;;;;;;7.50;1.60;;;20.00;96.70;;;;;;4932685;28;20413;-73
2022/11/04 11:27:52;;;;;;;5.97;1.08;;;20.00;96.70;;;;;;4963803;28;20051;-72
2022/11/04 11:30:23;;;;;;;9.15;1.60;;;20.10;96.70;;;;;;4950561;28;20122;-72
2022/11/04 11:32:55;;;;;;;6.60;0.93;;;20.20;96.70;;;;;;4941096;28;20141;-72
2022/11/04 11:35:28;;;;;;;8.73;1.55;;;20.40;96.70;;;;;;4957930;28;20143;-72
2022/11/04 11:38:18;;;;;;;6.72;1.58;;;20.60;96.70;;;;;;4928441;28;20552;-72
2022/11/04 11:40:49;;;;;;;8.13;1.83;;;20.70;96.70;;;;;;4953497;28;20060;-73
2022/11/04 11:43:42;;;;;;;6.88;1.13;;;20.90;96.70;;;;;;4941293;29;20142;-73
2022/11/04 11:46:12;;;;;;;8.65;1.95;;;20.90;96.70;;;;;;4954461;28;20457;-73
2022/11/04 11:48:42;;;;;;;4.45;0.98;;;20.90;96.70;;;;;;4914284;28;20053;-73
2022/11/04 11:51:12;;;;;;;5.05;0.93;;;21.00;96.70;;;;;;4924104;28;20043;-72
2022/11/04 11:53:56;;;;;;;13.30;1.75;;;21.00;96.70;;;;;;4950864;28;20137;-72
2022/11/04 11:56:29;;;;;;;6.25;1.00;;;20.90;96.70;;;;;;4942341;28;20436;-73
2022/11/04 11:59:27;;;;;;;13.63;2.40;;;21.00;96.70;;;;;;4935821;28;20047;-72
2022/11/04 12:02:28;;;;;;;9.20;1.55;;;21.10;96.70;;;;;;4929059;28;20142;-72
2022/11/04 12:04:57;;;;;;;5.50;1.00;;;21.20;96.70;;;;;;4935498;29;20425;-73
2022/11/04 12:07:54;;;;;;;5.50;1.35;;;21.10;96.70;;;;;;4932771;28;20054;-72
2022/11/04 12:10:48;;;;;;;9.73;1.58;;;21.30;96.70;;;;;;4963756;28;20058;-73
2022/11/04 12:13:25;;;;;;;6.15;1.35;;;21.40;96.70;;;;;;4935421;29;20106;-73
2022/11/04 12:16:22;;;;;;;5.22;1.33;;;21.30;96.70;;;;;;4927520;28;20421;-72
2022/11/04 12:19:03;;;;;;;7.03;1.40;;;21.50;96.70;;;;;;4928078;29;20058;-72
2022/11/04 12:21:34;;;;;;;7.60;1.05;;;21.50;96.70;;;;;;4928346;28;20129;-72
2022/11/04 12:24:13;;;;;;;6.93;1.10;;;21.30;96.70;;;;;;4939296;28;20057;-72
2022/11/04 12:26:52;;;;;;;5.20;1.10;;;21.10;96.70;;;;;;4923300;29;20058;-72
2022/11/04 12:29:35;;;;;;;5.07;1.00;;;21.30;96.70;;;;;;4929792;28;20047;-72
2022/11/04 12:32:17;;;;;;;7.18;1.27;;;21.50;96.70;;;;;;4940013;28;20043;-73
2022/11/04 12:34:58;;;;;;;3.97;1.00;;;21.30;96.70;;;;;;4946976;28;20035;-74
2022/11/04 12:37:40;;;;;;;8.40;1.42;;;21.20;96.70;;;;;;4948549;28;20784;-74
2022/11/04 12:40:14;;;;;;;6.05;1.17;;;21.10;96.70;;;;;;4943155;28;20055;-74
2022/11/04 12:43:14;;;;;;;5.47;0.95;;;21.20;96.70;;;;;;4952048;28;20054;-73
2022/11/04 12:45:55;;;;;;;6.07;1.20;;;21.20;96.70;;;;;;4913356;28;20150;-73
2022/11/04 12:48:43;;;;;;;6.55;1.60;;;21.20;96.70;;;;;;4926340;29;20055;-74
2022/11/04 12:51:17;;;;;;;9.60;1.83;;;21.20;96.70;;;;;;4938334;28;20047;-73
2022/11/04 12:54:03;;;;;;;5.35;1.20;;;21.10;96.70;;;;;;4931026;28;20508;-74
2022/11/04 12:56:36;;;;;;;7.13;1.38;;;21.10;96.70;;;;;;4936139;28;20047;-73
2022/11/04 12:59:47;;;;;;;9.40;1.85;;;21.10;96.70;;;;;;4961191;28;20121;-74
2022/11/04 13:02:41;;;;;;;6.30;1.17;;;20.70;96.70;;;;;;4894561;29;20340;-73
2022/11/04 13:05:39;;;;;;;5.88;1.23;;;20.40;96.70;;;;;;4946929;28;20055;-73
2022/11/04 13:08:13;;;;;;;7.13;1.85;;;20.20;96.70;;;;;;4932680;28;20047;-74
2022/11/04 13:10:48;;;;;;;8.70;1.98;;;20.10;96.70;;;;;;4940191;28;20046;-73
2022/11/04 13:13:31;;;;;;;7.45;2.22;;;20.00;96.70;;;;;;4955596;28;20054;-73
2022/11/04 13:16:05;;;;;;;9.38;1.77;;;19.90;96.70;;;;;;4932122;28;20443;-73
2022/11/04 13:18:38;;;;;;;9.25;2.08;;;19.80;96.70;;;;;;4928577;28;20143;-73
2022/11/04 13:21:13;;;;;;;6.60;1.58;;;20.10;96.70;;;;;;4945750;28;20391;-72
2022/11/04 13:23:48;;;;;;;8.77;1.45;;;20.20;96.70;;;;;;4928727;29;20702;-73
2022/11/04 13:26:17;;;;;;;10.57;2.10;;;20.40;96.70;;;;;;4947022;28;20051;-73
2022/11/04 13:28:54;;;;;;;9.45;1.63;;;20.40;96.70;;;;;;4950972;28;20489;-73
2022/11/04 13:31:30;;;;;;;6.00;1.67;;;20.30;96.70;;;;;;4947207;28;20166;-72
2022/11/04 13:34:06;;;;;;;11.53;2.00;;;20.40;96.70;;;;;;4925395;29;20098;-73
2022/11/04 13:36:43;;;;;;;10.70;2.13;;;20.30;96.70;;;;;;4946165;28;20467;-72
2022/11/04 13:39:19;;;;;;;8.00;1.70;;;20.30;96.70;;;;;;4944832;28;20048;-72
2022/11/04 13:42:15;;;;;;;14.07;1.80;;;20.50;96.70;;;;;;4943073;28;20109;-73
2022/11/04 13:44:46;;;;;;;10.57;1.98;;;20.60;96.70;;;;;;4947847;28;20073;-73
2022/11/04 13:47:18;;;;;;;7.45;1.48;;;20.70;96.70;;;;;;4944910;28;20506;-73
2022/11/04 13:49:50;;;;;;;8.10;1.80;;;20.70;96.70;;;;;;4929073;29;20058;-73
2022/11/04 13:52:20;;;;;;;8.77;1.92;;;20.80;96.70;;;;;;4943756;28;20050;-74